28 september 2022

Tijd Code Weer Temp. Zicht Plafond Wind METAR/SPECI
22:00
V
25 °C 10 km+ - Var Var 3 kt METAR AYPY 281200Z VRB03KT 9999 SCT050 25/24 Q1010
21:00
V
25 °C 10 km+ - 310° 310° 5 kt METAR AYPY 281100Z 31005KT 9999 SCT050 25/24 Q1009
20:00
V
25 °C 10 km+ 10.000 ft 330° 330° 5 kt METAR AYPY 281000Z 33005KT 9999 SCT040 BKN100 25/24 Q1009
19:00
V
25 °C 10 km+ 10.000 ft Var Var 3 kt METAR AYPY 280900Z VRB03KT 9999 SCT030 BKN100 25/24 Q1008
18:00
V
25 °C 10 km+ 3.000 ft 120° 120° 10 kt METAR AYPY 280800Z 12010KT 9999 HZ RASH SCT020 BKN030 25/24 Q1008
17:00
V
26 °C 10 km+ 4.000 ft 120° 120° 10 kt METAR AYPY 280700Z 12010KT 9999 HZ SCT020 BKN040 26/23 Q1007
16:00
V
25 °C 10 km+ 3.500 ft 320° 320° 15 - 20 kt METAR AYPY 280600Z 32015G20KT 9999 HZ SCT020 BKN035 25/23 Q1006 RMK/CB IN AREA
15:00
V
31 °C 10 km+ 3.000 ft 180° 180° 10 kt METAR AYPY 280500Z 18010KT 9999 HZ FEW020 BKN030CB 31/25 Q1006
14:00
V
31 °C 10 km+ 3.000 ft 190° 190° 10 kt METAR AYPY 280400Z 19010KT 9999 HZ FEW020 BKN030CB 31/25 Q1006
13:00
V
31 °C 10 km+ 3.500 ft 190° 190° 10 kt METAR AYPY 280300Z 19010KT 9999 HZ SCT025 BKN035CB 31/25 Q1007
12:00
V
31 °C 10 km+ 3.500 ft 200° 200° 10 kt METAR AYPY 280200Z 20010KT 9999 HZ SCT025 BKN035CB 31/25 Q1008
11:00
V
30 °C 10 km+ 4.500 ft 200° 200° 10 kt METAR AYPY 280100Z 20010KT 9999 HZ SCT025 BKN045CB 30/24 Q1009
10:00
V
30 °C 10 km+ - 330° 330° 10 kt METAR AYPY 280000Z 33010KT 9999 HZ SCT025 30/24 Q1009
09:00
V
29 °C 10 km+ - 330° 330° 10 kt METAR AYPY 272300Z 33010KT 9999 HZ FEW020 FEW050 29/24 Q1009
08:00
V
26 °C 10 km+ - Var Var 5 kt METAR AYPY 272200Z VRB05KT 9999 FEW050 26/24 Q1009
07:00
V
24 °C 10 km+ - Var Var 5 kt METAR AYPY 272100Z VRB05KT 9999 HZ SCT060 24/23 Q1008
06:00
V
23 °C 10 km+ - Var Var 4 kt METAR AYPY 272000Z VRB04KT 9999 SCT060 23/23 Q1008
05:00
V
24 °C 10 km+ - Var Var 3 kt METAR AYPY 271900Z VRB03KT 9999 SCT015 24/23 Q1007
04:00
V
24 °C 10 km+ - Var Var 5 kt METAR AYPY 271800Z VRB05KT 9999 SCT015 SCT240 24/23 Q1007
03:00
V
24 °C 10 km+ - 320° 320° 7 kt METAR AYPY 271700Z 32007KT 9999 SCT015 24/23 Q1007
01:00
V
24 °C 10 km+ - Var Var 4 kt METAR AYPY 271500Z VRB04KT 9999 FEW050 24/23 Q1007
00:00
V
24 °C 10 km+ - Var Var 3 kt METAR AYPY 271400Z VRB03KT 9999 FEW070 24/24 Q1008

27 september 2022

Tijd Code Weer Temp. Zicht Plafond Wind METAR/SPECI
23:00
V
24 °C 10 km+ - Var Var 3 kt METAR AYPY 271300Z VRB03KT 9999 SCT100 24/23 Q1008
22:00
V
24 °C 10 km+ - 320° 320° 5 kt METAR AYPY 271200Z 32005KT 9999 SCT100 24/23 Q1009
21:00
V
24 °C 10 km+ - 340° 340° 5 kt METAR AYPY 271100Z 34005KT 9999 SCT100 24/23 Q1009
20:00
V
25 °C 10 km+ 3.000 ft 030° 030° 10 kt METAR AYPY 271000Z 03010KT 9999 SCT015 BKN030 25/24 Q1009 RMK
19:00
V
27 °C 10 km+ 5.000 ft 130° 130° 10 - 15 kt METAR AYPY 270900Z 13010G15KT 9999 SCT025 BKN050 27/26 Q1007 RMK
18:00
V
28 °C 10 km+ 5.000 ft 160° 160° 15 - 20 kt METAR AYPY 270800Z 16015G20KT 9999 HZ SCT025 BKN050 28/25 Q1007 RMK/CB IN AREA
17:00
V
29 °C 10 km+ - 150° 150° 15 - 20 kt METAR AYPY 270700Z 15015G20KT 9999 HZ SCT025 29/25 Q1005
16:00
V
31 °C 10 km+ - 150° 150° 15 - 20 kt METAR AYPY 270600Z 15015G20KT 9999 HZ FEW020 SCT040 31/25 Q1005
15:00
V
31 °C 10 km+ - 150° 150° 15 - 20 kt METAR AYPY 270500Z 15015G20KT 9999 HZ FEW030 SCT050 31/25 Q1005
14:00
V
33 °C 10 km+ - 130° 130° 15 kt METAR AYPY 270400Z 13015KT 9999 FUHZ SCT030 33/25 Q1006
13:00
V
32 °C 10 km+ 3.000 ft 140° 140° 10 - 15 kt METAR AYPY 270300Z 14010G15KT 9999 HZ FEW020 BKN030 32/25 Q1007=
12:00
V
30 °C 10 km+ - 180° 180° 12 kt METAR AYPY 270200Z 18012KT 9999 FUHZ SCT025 SCT030 30/24 Q1008 RMK
11:00
V
31 °C 10 km+ 4.000 ft 200° 200° 12 kt METAR AYPY 270100Z 20012KT 9999 FUHZ SCT025 BKN040 31/25 Q1008
10:00
V
31 °C 10 km+ - 340° 340° 10 kt METAR AYPY 270000Z 34010KT 9999 HZ SCT030 31/24 Q1009
09:00
V
30 °C 10 km+ 4.000 ft 330° 330° 8 kt METAR AYPY 262300Z 33008KT 9999 HZ FEW025 BKN040 30/24 Q1009
08:00
V
27 °C 10 km+ 3.000 ft 340° 340° 5 kt METAR AYPY 262200Z 34005KT 9999 FUHZ OVC030 27/23 Q1009
07:00
V
25 °C 10 km+ 3.000 ft 330° 330° 4 kt METAR AYPY 262100Z 33004KT 9999 FUHZ SCT025 OVC030 25/23 Q1008
06:00
V
24 °C 10 km+ 3.500 ft Var Var 3 kt METAR AYPY 262000Z VRB03KT 9999 BKN035 24/23 Q1008
05:00
V
24 °C 10 km+ - Var Var 2 kt METAR AYPY 261900Z VRB02KT 9999 FEW030 24/23 Q1007=
04:00
V
24 °C 10 km+ - Var Var 3 kt METAR AYPY 261800Z VRB03KT 9999 FEW070 24/24 Q1007
03:00
V
24 °C 10 km+ - 340° 340° 6 kt METAR AYPY 261700Z 34006KT 9999 FEW080 24/23 Q1007=
02:00
V
25 °C 10 km+ - Var Var 2 kt METAR AYPY 261600Z VRB02KT 9999 FEW070 25/24 Q1007
00:00
V
26 °C 10 km+ - 150° 150° 15 kt METAR AYPY 261400Z 15015KT 9999 FEW040 26/24 Q1008

26 september 2022

Tijd Code Weer Temp. Zicht Plafond Wind METAR/SPECI
23:00
V
27 °C 10 km+ - 160° 160° 10 kt METAR AYPY 261300Z 16010KT 9999 FEW040 27/24 Q1008
Oudere gegevens

Met cookies volgen wij en derde partijen jouw internetgedrag binnen onze site. Als je verdergaat gaan we ervan uit dat je dit goedvindt. Meer info